sensor_id;sensor_type;location;lat;lon;timestamp;P1;durP1;ratioP1;P2;durP2;ratioP2
11988;SDS011;6054;50.966;7.094;2022-11-20T00:00:23;10.50;;;9.03;;
11988;SDS011;6054;50.966;7.094;2022-11-20T00:02:49;13.30;;;9.03;;
11988;SDS011;6054;50.966;7.094;2022-11-20T00:05:16;11.60;;;8.70;;
11988;SDS011;6054;50.966;7.094;2022-11-20T00:07:43;10.17;;;8.40;;
11988;SDS011;6054;50.966;7.094;2022-11-20T00:10:11;10.67;;;8.70;;
11988;SDS011;6054;50.966;7.094;2022-11-20T00:12:38;9.60;;;8.00;;
11988;SDS011;6054;50.966;7.094;2022-11-20T00:15:05;15.20;;;11.03;;
11988;SDS011;6054;50.966;7.094;2022-11-20T00:17:33;12.77;;;9.77;;
11988;SDS011;6054;50.966;7.094;2022-11-20T00:20:00;13.73;;;10.67;;
11988;SDS011;6054;50.966;7.094;2022-11-20T00:22:27;14.27;;;9.93;;
11988;SDS011;6054;50.966;7.094;2022-11-20T00:24:54;13.90;;;10.77;;
11988;SDS011;6054;50.966;7.094;2022-11-20T00:27:22;11.80;;;8.63;;
11988;SDS011;6054;50.966;7.094;2022-11-20T00:29:49;11.63;;;9.40;;
11988;SDS011;6054;50.966;7.094;2022-11-20T00:32:15;10.77;;;8.63;;
11988;SDS011;6054;50.966;7.094;2022-11-20T00:34:43;12.30;;;9.20;;
11988;SDS011;6054;50.966;7.094;2022-11-20T00:37:10;10.73;;;8.47;;
11988;SDS011;6054;50.966;7.094;2022-11-20T00:39:37;11.17;;;8.70;;
11988;SDS011;6054;50.966;7.094;2022-11-20T00:42:04;10.97;;;8.93;;
11988;SDS011;6054;50.966;7.094;2022-11-20T00:44:31;10.87;;;8.57;;
11988;SDS011;6054;50.966;7.094;2022-11-20T00:46:57;10.70;;;9.00;;
11988;SDS011;6054;50.966;7.094;2022-11-20T00:49:24;11.83;;;8.73;;
11988;SDS011;6054;50.966;7.094;2022-11-20T00:51:52;12.10;;;8.93;;
11988;SDS011;6054;50.966;7.094;2022-11-20T00:54:19;10.50;;;8.80;;
11988;SDS011;6054;50.966;7.094;2022-11-20T00:56:46;10.53;;;8.33;;
11988;SDS011;6054;50.966;7.094;2022-11-20T00:59:12;11.93;;;9.47;;
11988;SDS011;6054;50.966;7.094;2022-11-20T01:01:39;12.07;;;9.30;;
11988;SDS011;6054;50.966;7.094;2022-11-20T01:04:06;10.53;;;8.57;;
11988;SDS011;6054;50.966;7.094;2022-11-20T01:06:34;10.70;;;8.60;;
11988;SDS011;6054;50.966;7.094;2022-11-20T01:09:04;11.67;;;8.43;;
11988;SDS011;6054;50.966;7.094;2022-11-20T01:11:32;10.97;;;8.97;;
11988;SDS011;6054;50.966;7.094;2022-11-20T01:14:02;12.33;;;8.97;;
11988;SDS011;6054;50.966;7.094;2022-11-20T01:16:30;13.77;;;9.33;;
11988;SDS011;6054;50.966;7.094;2022-11-20T01:18:59;10.63;;;8.80;;
11988;SDS011;6054;50.966;7.094;2022-11-20T01:21:28;11.73;;;8.87;;
11988;SDS011;6054;50.966;7.094;2022-11-20T01:23:57;9.67;;;8.37;;
11988;SDS011;6054;50.966;7.094;2022-11-20T01:26:27;12.17;;;8.63;;
11988;SDS011;6054;50.966;7.094;2022-11-20T01:28:56;10.90;;;8.97;;
11988;SDS011;6054;50.966;7.094;2022-11-20T01:31:24;10.07;;;8.70;;
11988;SDS011;6054;50.966;7.094;2022-11-20T01:33:53;11.23;;;8.40;;
11988;SDS011;6054;50.966;7.094;2022-11-20T01:36:22;13.23;;;8.50;;
11988;SDS011;6054;50.966;7.094;2022-11-20T01:38:50;12.17;;;9.27;;
11988;SDS011;6054;50.966;7.094;2022-11-20T01:41:18;11.17;;;8.90;;
11988;SDS011;6054;50.966;7.094;2022-11-20T01:44:01;10.23;;;8.63;;
11988;SDS011;6054;50.966;7.094;2022-11-20T01:46:28;12.27;;;8.00;;
11988;SDS011;6054;50.966;7.094;2022-11-20T01:48:57;9.97;;;8.57;;
11988;SDS011;6054;50.966;7.094;2022-11-20T01:51:25;9.73;;;8.50;;
11988;SDS011;6054;50.966;7.094;2022-11-20T01:53:55;10.53;;;8.30;;
11988;SDS011;6054;50.966;7.094;2022-11-20T01:56:25;10.27;;;8.20;;
11988;SDS011;6054;50.966;7.094;2022-11-20T01:58:56;9.40;;;8.30;;
11988;SDS011;6054;50.966;7.094;2022-11-20T02:01:27;11.27;;;9.13;;
11988;SDS011;6054;50.966;7.094;2022-11-20T02:03:54;12.10;;;8.90;;
11988;SDS011;6054;50.966;7.094;2022-11-20T02:06:22;10.00;;;8.50;;
11988;SDS011;6054;50.966;7.094;2022-11-20T02:09:02;11.20;;;8.13;;
11988;SDS011;6054;50.966;7.094;2022-11-20T02:11:29;10.90;;;8.87;;
11988;SDS011;6054;50.966;7.094;2022-11-20T02:13:56;9.73;;;7.97;;
11988;SDS011;6054;50.966;7.094;2022-11-20T02:16:23;10.47;;;7.93;;
11988;SDS011;6054;50.966;7.094;2022-11-20T02:18:53;11.83;;;9.27;;
11988;SDS011;6054;50.966;7.094;2022-11-20T02:21:30;10.63;;;8.43;;
11988;SDS011;6054;50.966;7.094;2022-11-20T02:24:04;11.57;;;9.03;;
11988;SDS011;6054;50.966;7.094;2022-11-20T02:26:38;10.23;;;8.23;;
11988;SDS011;6054;50.966;7.094;2022-11-20T02:29:15;9.60;;;8.00;;
11988;SDS011;6054;50.966;7.094;2022-11-20T02:31:45;10.03;;;8.37;;
11988;SDS011;6054;50.966;7.094;2022-11-20T02:34:12;10.27;;;8.33;;
11988;SDS011;6054;50.966;7.094;2022-11-20T02:36:39;11.90;;;8.87;;
11988;SDS011;6054;50.966;7.094;2022-11-20T02:39:08;9.67;;;8.50;;
11988;SDS011;6054;50.966;7.094;2022-11-20T02:41:37;10.03;;;8.40;;
11988;SDS011;6054;50.966;7.094;2022-11-20T02:44:06;10.50;;;8.13;;
11988;SDS011;6054;50.966;7.094;2022-11-20T02:46:32;9.13;;;8.20;;
11988;SDS011;6054;50.966;7.094;2022-11-20T02:49:00;13.10;;;9.13;;
11988;SDS011;6054;50.966;7.094;2022-11-20T02:51:27;8.83;;;7.90;;
11988;SDS011;6054;50.966;7.094;2022-11-20T02:53:54;12.57;;;9.53;;
11988;SDS011;6054;50.966;7.094;2022-11-20T02:56:22;10.77;;;8.47;;
11988;SDS011;6054;50.966;7.094;2022-11-20T02:58:50;11.33;;;8.83;;
11988;SDS011;6054;50.966;7.094;2022-11-20T03:06:27;10.43;;;8.13;;
11988;SDS011;6054;50.966;7.094;2022-11-20T03:08:54;10.17;;;8.40;;
11988;SDS011;6054;50.966;7.094;2022-11-20T03:11:20;11.37;;;9.03;;
11988;SDS011;6054;50.966;7.094;2022-11-20T03:13:51;11.57;;;8.90;;
11988;SDS011;6054;50.966;7.094;2022-11-20T03:16:19;11.03;;;8.80;;
11988;SDS011;6054;50.966;7.094;2022-11-20T03:18:47;9.97;;;8.53;;
11988;SDS011;6054;50.966;7.094;2022-11-20T03:21:14;10.90;;;9.00;;
11988;SDS011;6054;50.966;7.094;2022-11-20T03:23:41;10.80;;;9.00;;
11988;SDS011;6054;50.966;7.094;2022-11-20T03:26:09;10.67;;;8.93;;
11988;SDS011;6054;50.966;7.094;2022-11-20T03:28:38;11.40;;;8.80;;
11988;SDS011;6054;50.966;7.094;2022-11-20T03:31:06;10.57;;;8.07;;
11988;SDS011;6054;50.966;7.094;2022-11-20T03:33:34;10.90;;;8.80;;
11988;SDS011;6054;50.966;7.094;2022-11-20T03:36:01;12.77;;;9.20;;
11988;SDS011;6054;50.966;7.094;2022-11-20T03:38:29;13.93;;;8.80;;
11988;SDS011;6054;50.966;7.094;2022-11-20T03:41:00;11.53;;;8.80;;
11988;SDS011;6054;50.966;7.094;2022-11-20T03:43:28;12.57;;;9.47;;
11988;SDS011;6054;50.966;7.094;2022-11-20T03:45:58;11.67;;;9.20;;
11988;SDS011;6054;50.966;7.094;2022-11-20T03:48:25;11.00;;;9.07;;
11988;SDS011;6054;50.966;7.094;2022-11-20T03:50:53;12.63;;;9.20;;
11988;SDS011;6054;50.966;7.094;2022-11-20T03:53:32;11.60;;;9.03;;
11988;SDS011;6054;50.966;7.094;2022-11-20T03:55:59;10.33;;;8.80;;
11988;SDS011;6054;50.966;7.094;2022-11-20T03:58:25;13.97;;;9.23;;
11988;SDS011;6054;50.966;7.094;2022-11-20T04:00:52;11.40;;;9.27;;
11988;SDS011;6054;50.966;7.094;2022-11-20T04:03:20;9.70;;;8.50;;
11988;SDS011;6054;50.966;7.094;2022-11-20T04:05:47;12.13;;;9.27;;
11988;SDS011;6054;50.966;7.094;2022-11-20T04:08:14;11.67;;;9.20;;
11988;SDS011;6054;50.966;7.094;2022-11-20T04:10:41;10.57;;;8.70;;
11988;SDS011;6054;50.966;7.094;2022-11-20T04:13:07;13.20;;;9.23;;
11988;SDS011;6054;50.966;7.094;2022-11-20T04:15:34;11.07;;;8.87;;
11988;SDS011;6054;50.966;7.094;2022-11-20T04:18:01;12.20;;;9.10;;
11988;SDS011;6054;50.966;7.094;2022-11-20T04:20:29;11.30;;;9.23;;
11988;SDS011;6054;50.966;7.094;2022-11-20T04:22:56;13.03;;;9.73;;
11988;SDS011;6054;50.966;7.094;2022-11-20T04:25:23;11.27;;;9.17;;
11988;SDS011;6054;50.966;7.094;2022-11-20T04:27:50;10.97;;;8.70;;
11988;SDS011;6054;50.966;7.094;2022-11-20T04:30:16;12.23;;;9.73;;
11988;SDS011;6054;50.966;7.094;2022-11-20T04:32:43;11.90;;;9.40;;
11988;SDS011;6054;50.966;7.094;2022-11-20T04:35:10;11.97;;;9.07;;
11988;SDS011;6054;50.966;7.094;2022-11-20T04:37:38;15.17;;;10.30;;
11988;SDS011;6054;50.966;7.094;2022-11-20T04:40:07;13.60;;;10.20;;
11988;SDS011;6054;50.966;7.094;2022-11-20T04:42:35;12.10;;;9.50;;
11988;SDS011;6054;50.966;7.094;2022-11-20T04:45:01;15.33;;;10.33;;
11988;SDS011;6054;50.966;7.094;2022-11-20T04:47:28;11.90;;;9.27;;
11988;SDS011;6054;50.966;7.094;2022-11-20T04:49:55;12.37;;;9.57;;
11988;SDS011;6054;50.966;7.094;2022-11-20T04:52:22;10.83;;;9.10;;
11988;SDS011;6054;50.966;7.094;2022-11-20T04:54:50;12.33;;;10.00;;
11988;SDS011;6054;50.966;7.094;2022-11-20T04:57:18;13.13;;;9.67;;
11988;SDS011;6054;50.966;7.094;2022-11-20T04:59:45;14.00;;;9.90;;
11988;SDS011;6054;50.966;7.094;2022-11-20T05:02:12;11.77;;;9.50;;
11988;SDS011;6054;50.966;7.094;2022-11-20T05:04:38;11.83;;;8.93;;
11988;SDS011;6054;50.966;7.094;2022-11-20T05:07:05;13.47;;;9.53;;
11988;SDS011;6054;50.966;7.094;2022-11-20T05:09:32;13.63;;;9.67;;
11988;SDS011;6054;50.966;7.094;2022-11-20T05:12:00;13.80;;;9.47;;
11988;SDS011;6054;50.966;7.094;2022-11-20T05:14:27;12.07;;;9.77;;
11988;SDS011;6054;50.966;7.094;2022-11-20T05:16:53;13.80;;;9.80;;
11988;SDS011;6054;50.966;7.094;2022-11-20T05:19:20;13.43;;;9.40;;
11988;SDS011;6054;50.966;7.094;2022-11-20T05:21:47;13.03;;;9.93;;
11988;SDS011;6054;50.966;7.094;2022-11-20T05:24:14;11.10;;;9.03;;
11988;SDS011;6054;50.966;7.094;2022-11-20T05:26:40;14.43;;;10.47;;
11988;SDS011;6054;50.966;7.094;2022-11-20T05:29:10;12.37;;;9.63;;
11988;SDS011;6054;50.966;7.094;2022-11-20T05:31:38;11.43;;;9.43;;
11988;SDS011;6054;50.966;7.094;2022-11-20T05:34:06;10.67;;;9.00;;
11988;SDS011;6054;50.966;7.094;2022-11-20T05:36:33;11.47;;;10.13;;
11988;SDS011;6054;50.966;7.094;2022-11-20T05:39:00;13.30;;;10.30;;
11988;SDS011;6054;50.966;7.094;2022-11-20T05:41:27;12.77;;;9.80;;
11988;SDS011;6054;50.966;7.094;2022-11-20T05:43:53;12.00;;;9.40;;
11988;SDS011;6054;50.966;7.094;2022-11-20T05:46:24;11.30;;;10.00;;
11988;SDS011;6054;50.966;7.094;2022-11-20T05:48:51;13.27;;;9.97;;
11988;SDS011;6054;50.966;7.094;2022-11-20T05:51:18;11.70;;;9.43;;
11988;SDS011;6054;50.966;7.094;2022-11-20T05:53:45;11.60;;;9.93;;
11988;SDS011;6054;50.966;7.094;2022-11-20T05:56:13;15.27;;;9.87;;
11988;SDS011;6054;50.966;7.094;2022-11-20T05:58:41;13.80;;;10.27;;
11988;SDS011;6054;50.966;7.094;2022-11-20T06:01:09;13.90;;;9.57;;
11988;SDS011;6054;50.966;7.094;2022-11-20T06:03:40;13.13;;;10.37;;
11988;SDS011;6054;50.966;7.094;2022-11-20T06:06:10;13.47;;;9.43;;
11988;SDS011;6054;50.966;7.094;2022-11-20T06:08:38;12.03;;;8.80;;
11988;SDS011;6054;50.966;7.094;2022-11-20T06:11:05;11.57;;;9.63;;
11988;SDS011;6054;50.966;7.094;2022-11-20T06:13:32;13.00;;;9.73;;
11988;SDS011;6054;50.966;7.094;2022-11-20T06:16:00;12.20;;;10.40;;
11988;SDS011;6054;50.966;7.094;2022-11-20T06:18:27;13.90;;;10.03;;
11988;SDS011;6054;50.966;7.094;2022-11-20T06:21:02;13.33;;;10.37;;
11988;SDS011;6054;50.966;7.094;2022-11-20T06:23:31;13.23;;;9.30;;
11988;SDS011;6054;50.966;7.094;2022-11-20T06:26:00;11.43;;;9.73;;
11988;SDS011;6054;50.966;7.094;2022-11-20T06:28:28;13.57;;;9.97;;
11988;SDS011;6054;50.966;7.094;2022-11-20T06:30:55;11.57;;;9.57;;
11988;SDS011;6054;50.966;7.094;2022-11-20T06:33:22;13.83;;;10.33;;
11988;SDS011;6054;50.966;7.094;2022-11-20T06:35:48;13.90;;;10.73;;
11988;SDS011;6054;50.966;7.094;2022-11-20T06:38:17;14.77;;;11.30;;
11988;SDS011;6054;50.966;7.094;2022-11-20T06:40:43;20.03;;;13.27;;
11988;SDS011;6054;50.966;7.094;2022-11-20T06:43:10;16.20;;;10.87;;
11988;SDS011;6054;50.966;7.094;2022-11-20T06:45:37;13.40;;;10.30;;
11988;SDS011;6054;50.966;7.094;2022-11-20T06:48:04;15.53;;;11.27;;
11988;SDS011;6054;50.966;7.094;2022-11-20T06:50:31;14.90;;;11.17;;
11988;SDS011;6054;50.966;7.094;2022-11-20T06:53:00;15.57;;;10.83;;
11988;SDS011;6054;50.966;7.094;2022-11-20T06:55:29;14.17;;;10.93;;
11988;SDS011;6054;50.966;7.094;2022-11-20T06:57:57;14.30;;;11.17;;
11988;SDS011;6054;50.966;7.094;2022-11-20T07:00:24;18.10;;;11.30;;
11988;SDS011;6054;50.966;7.094;2022-11-20T07:02:51;15.07;;;11.77;;
11988;SDS011;6054;50.966;7.094;2022-11-20T07:05:17;15.77;;;11.03;;
11988;SDS011;6054;50.966;7.094;2022-11-20T07:07:44;15.90;;;11.00;;
11988;SDS011;6054;50.966;7.094;2022-11-20T07:10:11;15.23;;;10.93;;
11988;SDS011;6054;50.966;7.094;2022-11-20T07:12:39;13.90;;;10.63;;
11988;SDS011;6054;50.966;7.094;2022-11-20T07:15:06;16.13;;;11.73;;
11988;SDS011;6054;50.966;7.094;2022-11-20T07:17:33;13.93;;;11.03;;
11988;SDS011;6054;50.966;7.094;2022-11-20T07:20:00;14.87;;;10.73;;
11988;SDS011;6054;50.966;7.094;2022-11-20T07:22:27;14.33;;;11.73;;
11988;SDS011;6054;50.966;7.094;2022-11-20T07:24:54;15.70;;;10.70;;
11988;SDS011;6054;50.966;7.094;2022-11-20T07:27:21;13.30;;;9.33;;
11988;SDS011;6054;50.966;7.094;2022-11-20T07:29:49;14.70;;;10.50;;
11988;SDS011;6054;50.966;7.094;2022-11-20T07:32:15;14.27;;;10.10;;
11988;SDS011;6054;50.966;7.094;2022-11-20T07:34:42;15.10;;;10.97;;
11988;SDS011;6054;50.966;7.094;2022-11-20T07:37:09;15.97;;;10.90;;
11988;SDS011;6054;50.966;7.094;2022-11-20T07:39:36;14.27;;;10.43;;
11988;SDS011;6054;50.966;7.094;2022-11-20T07:42:02;12.60;;;10.30;;
11988;SDS011;6054;50.966;7.094;2022-11-20T07:44:29;12.27;;;9.57;;
11988;SDS011;6054;50.966;7.094;2022-11-20T07:46:57;11.37;;;9.53;;
11988;SDS011;6054;50.966;7.094;2022-11-20T07:49:24;13.70;;;8.83;;
11988;SDS011;6054;50.966;7.094;2022-11-20T07:51:51;12.03;;;9.20;;
11988;SDS011;6054;50.966;7.094;2022-11-20T07:54:18;12.97;;;9.30;;
11988;SDS011;6054;50.966;7.094;2022-11-20T07:56:45;13.77;;;10.60;;
11988;SDS011;6054;50.966;7.094;2022-11-20T07:59:12;12.53;;;9.40;;
11988;SDS011;6054;50.966;7.094;2022-11-20T08:01:39;12.90;;;9.53;;
11988;SDS011;6054;50.966;7.094;2022-11-20T08:04:07;15.30;;;9.63;;
11988;SDS011;6054;50.966;7.094;2022-11-20T08:06:34;17.37;;;11.20;;
11988;SDS011;6054;50.966;7.094;2022-11-20T08:09:01;15.77;;;10.87;;
11988;SDS011;6054;50.966;7.094;2022-11-20T08:11:28;13.17;;;10.50;;
11988;SDS011;6054;50.966;7.094;2022-11-20T08:14:13;16.30;;;12.20;;
11988;SDS011;6054;50.966;7.094;2022-11-20T08:16:41;17.37;;;12.83;;
11988;SDS011;6054;50.966;7.094;2022-11-20T08:19:10;16.87;;;12.73;;
11988;SDS011;6054;50.966;7.094;2022-11-20T08:21:37;16.20;;;12.47;;
11988;SDS011;6054;50.966;7.094;2022-11-20T08:24:05;19.20;;;12.80;;
11988;SDS011;6054;50.966;7.094;2022-11-20T08:26:33;15.93;;;12.10;;
11988;SDS011;6054;50.966;7.094;2022-11-20T08:29:00;16.63;;;12.50;;
11988;SDS011;6054;50.966;7.094;2022-11-20T08:31:27;16.90;;;12.33;;
11988;SDS011;6054;50.966;7.094;2022-11-20T08:33:54;16.63;;;12.37;;
11988;SDS011;6054;50.966;7.094;2022-11-20T08:36:22;17.20;;;12.43;;
11988;SDS011;6054;50.966;7.094;2022-11-20T08:38:50;16.83;;;12.67;;
11988;SDS011;6054;50.966;7.094;2022-11-20T08:41:18;14.63;;;11.37;;
11988;SDS011;6054;50.966;7.094;2022-11-20T08:43:52;17.63;;;12.80;;
11988;SDS011;6054;50.966;7.094;2022-11-20T08:46:21;16.40;;;12.63;;
11988;SDS011;6054;50.966;7.094;2022-11-20T08:48:49;16.43;;;11.90;;
11988;SDS011;6054;50.966;7.094;2022-11-20T08:51:15;15.33;;;11.87;;
11988;SDS011;6054;50.966;7.094;2022-11-20T08:53:44;16.30;;;11.83;;
11988;SDS011;6054;50.966;7.094;2022-11-20T08:56:11;15.87;;;11.47;;
11988;SDS011;6054;50.966;7.094;2022-11-20T08:58:38;14.77;;;11.60;;
11988;SDS011;6054;50.966;7.094;2022-11-20T09:03:33;16.57;;;12.27;;
11988;SDS011;6054;50.966;7.094;2022-11-20T09:06:00;15.93;;;12.57;;
11988;SDS011;6054;50.966;7.094;2022-11-20T09:08:28;14.67;;;11.40;;
11988;SDS011;6054;50.966;7.094;2022-11-20T09:10:57;15.90;;;11.33;;
11988;SDS011;6054;50.966;7.094;2022-11-20T09:13:25;16.73;;;12.80;;
11988;SDS011;6054;50.966;7.094;2022-11-20T09:15:53;17.00;;;12.03;;
11988;SDS011;6054;50.966;7.094;2022-11-20T09:18:21;17.27;;;12.97;;
11988;SDS011;6054;50.966;7.094;2022-11-20T09:20:48;14.83;;;11.70;;
11988;SDS011;6054;50.966;7.094;2022-11-20T09:23:15;16.58;;;12.60;;
11988;SDS011;6054;50.966;7.094;2022-11-20T09:25:42;15.93;;;11.93;;
11988;SDS011;6054;50.966;7.094;2022-11-20T09:28:10;15.13;;;12.20;;
11988;SDS011;6054;50.966;7.094;2022-11-20T09:30:37;17.00;;;12.40;;
11988;SDS011;6054;50.966;7.094;2022-11-20T09:33:04;17.13;;;12.47;;
11988;SDS011;6054;50.966;7.094;2022-11-20T09:35:32;17.80;;;12.73;;
11988;SDS011;6054;50.966;7.094;2022-11-20T09:38:03;20.70;;;13.63;;
11988;SDS011;6054;50.966;7.094;2022-11-20T09:40:31;15.83;;;12.33;;
11988;SDS011;6054;50.966;7.094;2022-11-20T09:42:59;15.20;;;11.50;;
11988;SDS011;6054;50.966;7.094;2022-11-20T09:45:42;17.50;;;10.90;;
11988;SDS011;6054;50.966;7.094;2022-11-20T09:51:21;14.23;;;10.47;;
11988;SDS011;6054;50.966;7.094;2022-11-20T09:53:57;13.47;;;9.97;;
11988;SDS011;6054;50.966;7.094;2022-11-20T09:56:33;14.50;;;10.40;;
11988;SDS011;6054;50.966;7.094;2022-11-20T09:59:04;15.60;;;11.60;;
11988;SDS011;6054;50.966;7.094;2022-11-20T10:01:35;17.43;;;10.50;;
11988;SDS011;6054;50.966;7.094;2022-11-20T10:04:06;13.33;;;10.63;;
11988;SDS011;6054;50.966;7.094;2022-11-20T10:06:39;11.30;;;8.60;;
11988;SDS011;6054;50.966;7.094;2022-11-20T10:09:15;11.23;;;9.20;;
11988;SDS011;6054;50.966;7.094;2022-11-20T10:11:48;12.73;;;9.47;;
11988;SDS011;6054;50.966;7.094;2022-11-20T10:14:26;13.73;;;9.20;;
11988;SDS011;6054;50.966;7.094;2022-11-20T10:17:01;14.02;;;9.48;;
11988;SDS011;6054;50.966;7.094;2022-11-20T10:19:41;12.07;;;9.40;;
11988;SDS011;6054;50.966;7.094;2022-11-20T10:22:25;12.57;;;9.40;;
11988;SDS011;6054;50.966;7.094;2022-11-20T10:25:04;12.30;;;9.63;;
11988;SDS011;6054;50.966;7.094;2022-11-20T10:27:46;14.17;;;10.50;;
11988;SDS011;6054;50.966;7.094;2022-11-20T10:30:36;14.10;;;10.53;;
11988;SDS011;6054;50.966;7.094;2022-11-20T10:33:11;12.60;;;10.10;;
11988;SDS011;6054;50.966;7.094;2022-11-20T10:35:42;15.17;;;10.40;;
11988;SDS011;6054;50.966;7.094;2022-11-20T10:38:13;13.07;;;10.10;;
11988;SDS011;6054;50.966;7.094;2022-11-20T10:40:45;16.93;;;11.97;;
11988;SDS011;6054;50.966;7.094;2022-11-20T10:43:16;14.02;;;11.20;;
11988;SDS011;6054;50.966;7.094;2022-11-20T10:45:48;18.10;;;11.43;;
11988;SDS011;6054;50.966;7.094;2022-11-20T10:48:22;14.60;;;11.50;;
11988;SDS011;6054;50.966;7.094;2022-11-20T10:50:59;14.37;;;10.97;;
11988;SDS011;6054;50.966;7.094;2022-11-20T10:53:40;17.40;;;11.67;;
11988;SDS011;6054;50.966;7.094;2022-11-20T10:56:13;16.83;;;11.83;;
11988;SDS011;6054;50.966;7.094;2022-11-20T10:58:46;16.00;;;11.73;;
11988;SDS011;6054;50.966;7.094;2022-11-20T11:01:24;18.03;;;13.33;;
11988;SDS011;6054;50.966;7.094;2022-11-20T11:03:53;14.77;;;11.40;;
11988;SDS011;6054;50.966;7.094;2022-11-20T11:06:22;16.60;;;12.50;;
11988;SDS011;6054;50.966;7.094;2022-11-20T11:08:55;16.77;;;12.02;;
11988;SDS011;6054;50.966;7.094;2022-11-20T11:11:25;16.40;;;12.07;;
11988;SDS011;6054;50.966;7.094;2022-11-20T11:14:03;15.63;;;11.90;;
11988;SDS011;6054;50.966;7.094;2022-11-20T11:16:30;16.70;;;12.30;;
11988;SDS011;6054;50.966;7.094;2022-11-20T11:19:05;17.47;;;12.50;;
11988;SDS011;6054;50.966;7.094;2022-11-20T11:21:32;18.53;;;13.20;;
11988;SDS011;6054;50.966;7.094;2022-11-20T11:23:59;16.93;;;12.40;;
11988;SDS011;6054;50.966;7.094;2022-11-20T11:26:27;15.97;;;11.97;;
11988;SDS011;6054;50.966;7.094;2022-11-20T11:28:56;16.07;;;11.43;;
11988;SDS011;6054;50.966;7.094;2022-11-20T11:31:24;18.33;;;12.93;;
11988;SDS011;6054;50.966;7.094;2022-11-20T11:33:52;19.70;;;13.03;;
11988;SDS011;6054;50.966;7.094;2022-11-20T11:36:30;18.23;;;13.03;;
11988;SDS011;6054;50.966;7.094;2022-11-20T11:38:59;15.98;;;12.07;;
11988;SDS011;6054;50.966;7.094;2022-11-20T11:41:28;18.87;;;12.47;;
11988;SDS011;6054;50.966;7.094;2022-11-20T11:44:00;15.03;;;11.77;;
11988;SDS011;6054;50.966;7.094;2022-11-20T11:46:59;17.90;;;12.53;;
11988;SDS011;6054;50.966;7.094;2022-11-20T11:49:26;15.67;;;12.53;;
11988;SDS011;6054;50.966;7.094;2022-11-20T11:51:58;19.53;;;16.63;;
11988;SDS011;6054;50.966;7.094;2022-11-20T11:54:30;19.13;;;13.43;;
11988;SDS011;6054;50.966;7.094;2022-11-20T11:57:03;16.70;;;12.30;;
11988;SDS011;6054;50.966;7.094;2022-11-20T11:59:39;16.37;;;12.03;;
11988;SDS011;6054;50.966;7.094;2022-11-20T12:02:15;19.43;;;12.63;;
11988;SDS011;6054;50.966;7.094;2022-11-20T12:04:54;18.27;;;12.32;;
11988;SDS011;6054;50.966;7.094;2022-11-20T12:07:32;18.00;;;12.80;;
11988;SDS011;6054;50.966;7.094;2022-11-20T12:10:07;17.77;;;12.27;;
11988;SDS011;6054;50.966;7.094;2022-11-20T12:12:44;16.10;;;11.57;;
11988;SDS011;6054;50.966;7.094;2022-11-20T12:15:16;16.70;;;11.83;;
11988;SDS011;6054;50.966;7.094;2022-11-20T12:17:51;16.35;;;12.05;;
11988;SDS011;6054;50.966;7.094;2022-11-20T12:20:18;15.13;;;11.60;;
11988;SDS011;6054;50.966;7.094;2022-11-20T12:22:52;16.60;;;12.13;;
11988;SDS011;6054;50.966;7.094;2022-11-20T12:25:26;16.10;;;12.13;;
11988;SDS011;6054;50.966;7.094;2022-11-20T12:28:05;17.43;;;12.30;;
11988;SDS011;6054;50.966;7.094;2022-11-20T12:30:57;17.67;;;12.87;;
11988;SDS011;6054;50.966;7.094;2022-11-20T12:36:41;15.80;;;11.40;;
11988;SDS011;6054;50.966;7.094;2022-11-20T12:39:19;16.70;;;11.77;;
11988;SDS011;6054;50.966;7.094;2022-11-20T12:41:59;18.00;;;13.53;;
11988;SDS011;6054;50.966;7.094;2022-11-20T12:45:21;16.87;;;12.27;;
11988;SDS011;6054;50.966;7.094;2022-11-20T12:48:25;18.13;;;12.23;;
11988;SDS011;6054;50.966;7.094;2022-11-20T12:51:06;18.00;;;12.30;;
11988;SDS011;6054;50.966;7.094;2022-11-20T12:53:46;20.60;;;12.33;;
11988;SDS011;6054;50.966;7.094;2022-11-20T12:56:24;16.67;;;11.93;;
11988;SDS011;6054;50.966;7.094;2022-11-20T12:59:03;17.30;;;12.10;;
11988;SDS011;6054;50.966;7.094;2022-11-20T13:01:43;18.03;;;11.67;;
11988;SDS011;6054;50.966;7.094;2022-11-20T13:04:18;17.03;;;12.60;;
11988;SDS011;6054;50.966;7.094;2022-11-20T13:06:56;16.13;;;11.93;;
11988;SDS011;6054;50.966;7.094;2022-11-20T13:09:23;17.67;;;13.00;;
11988;SDS011;6054;50.966;7.094;2022-11-20T13:11:55;16.85;;;12.02;;
11988;SDS011;6054;50.966;7.094;2022-11-20T13:14:31;17.03;;;12.20;;
11988;SDS011;6054;50.966;7.094;2022-11-20T13:17:04;19.17;;;12.18;;
11988;SDS011;6054;50.966;7.094;2022-11-20T13:19:36;17.00;;;12.73;;
11988;SDS011;6054;50.966;7.094;2022-11-20T13:22:57;16.73;;;13.23;;
11988;SDS011;6054;50.966;7.094;2022-11-20T13:25:24;17.90;;;12.47;;
11988;SDS011;6054;50.966;7.094;2022-11-20T13:27:54;17.67;;;12.70;;
11988;SDS011;6054;50.966;7.094;2022-11-20T13:30:22;16.87;;;11.90;;
11988;SDS011;6054;50.966;7.094;2022-11-20T13:32:50;16.23;;;11.87;;
11988;SDS011;6054;50.966;7.094;2022-11-20T13:35:29;17.90;;;12.15;;
11988;SDS011;6054;50.966;7.094;2022-11-20T13:38:01;16.25;;;12.25;;
11988;SDS011;6054;50.966;7.094;2022-11-20T13:40:30;16.98;;;12.00;;
11988;SDS011;6054;50.966;7.094;2022-11-20T13:43:04;15.33;;;11.33;;
11988;SDS011;6054;50.966;7.094;2022-11-20T13:45:41;19.08;;;12.52;;
11988;SDS011;6054;50.966;7.094;2022-11-20T13:48:18;14.90;;;11.40;;
11988;SDS011;6054;50.966;7.094;2022-11-20T13:50:50;16.80;;;11.77;;
11988;SDS011;6054;50.966;7.094;2022-11-20T13:53:29;15.98;;;11.00;;
11988;SDS011;6054;50.966;7.094;2022-11-20T13:56:10;16.35;;;10.90;;
11988;SDS011;6054;50.966;7.094;2022-11-20T13:58:51;16.55;;;11.55;;
11988;SDS011;6054;50.966;7.094;2022-11-20T14:01:29;15.90;;;11.77;;
11988;SDS011;6054;50.966;7.094;2022-11-20T14:03:57;16.08;;;11.18;;
11988;SDS011;6054;50.966;7.094;2022-11-20T14:06:25;14.10;;;11.03;;
11988;SDS011;6054;50.966;7.094;2022-11-20T14:08:54;15.50;;;11.20;;
11988;SDS011;6054;50.966;7.094;2022-11-20T14:11:22;21.07;;;17.63;;
11988;SDS011;6054;50.966;7.094;2022-11-20T14:13:53;17.83;;;12.25;;
11988;SDS011;6054;50.966;7.094;2022-11-20T14:16:22;17.07;;;11.40;;
11988;SDS011;6054;50.966;7.094;2022-11-20T14:18:51;16.65;;;11.75;;
11988;SDS011;6054;50.966;7.094;2022-11-20T14:21:22;14.27;;;11.20;;
11988;SDS011;6054;50.966;7.094;2022-11-20T14:23:53;14.23;;;11.05;;
11988;SDS011;6054;50.966;7.094;2022-11-20T14:26:20;13.98;;;11.02;;
11988;SDS011;6054;50.966;7.094;2022-11-20T14:28:50;13.23;;;10.30;;
11988;SDS011;6054;50.966;7.094;2022-11-20T14:31:23;15.63;;;10.93;;
11988;SDS011;6054;50.966;7.094;2022-11-20T14:33:51;15.07;;;11.13;;
11988;SDS011;6054;50.966;7.094;2022-11-20T14:36:19;14.35;;;10.57;;
11988;SDS011;6054;50.966;7.094;2022-11-20T14:38:48;14.18;;;10.35;;
11988;SDS011;6054;50.966;7.094;2022-11-20T14:41:16;14.63;;;10.15;;
11988;SDS011;6054;50.966;7.094;2022-11-20T14:43:46;15.83;;;10.90;;
11988;SDS011;6054;50.966;7.094;2022-11-20T14:46:16;15.57;;;11.48;;
11988;SDS011;6054;50.966;7.094;2022-11-20T14:48:45;13.70;;;9.70;;
11988;SDS011;6054;50.966;7.094;2022-11-20T14:51:25;14.27;;;10.10;;
11988;SDS011;6054;50.966;7.094;2022-11-20T14:53:55;14.27;;;10.70;;
11988;SDS011;6054;50.966;7.094;2022-11-20T14:56:23;15.98;;;11.15;;
11988;SDS011;6054;50.966;7.094;2022-11-20T14:58:56;16.77;;;11.02;;
11988;SDS011;6054;50.966;7.094;2022-11-20T15:03:57;16.38;;;10.93;;
11988;SDS011;6054;50.966;7.094;2022-11-20T15:06:26;16.63;;;11.20;;
11988;SDS011;6054;50.966;7.094;2022-11-20T15:08:54;15.60;;;10.45;;
11988;SDS011;6054;50.966;7.094;2022-11-20T15:11:23;15.80;;;11.23;;
11988;SDS011;6054;50.966;7.094;2022-11-20T15:13:54;15.37;;;10.80;;